Time;durP1;ratioP1;P1;durP2;ratioP2;P2;SDS_P1;SDS_P2;PMS_P1;PMS_P2;Temp;Humidity;BMP_temperature;BMP_pressure;BME280_temperature;BME280_humidity;BME280_pressure;Samples;Min_cycle;Max_cycle;Signal;HPM_P1;HPM_P2
2023/01/03 00:02:10;;;;;;;10.80;6.10;;;;;;;;;;4982631;28;20208;-78
2023/01/03 00:04:37;;;;;;;2.90;2.57;;;;;;;;;;4979554;28;20240;-75
2023/01/03 00:07:11;;;;;;;1.87;1.77;;;;;;;;;;4988781;28;20612;-76
2023/01/03 00:09:39;;;;;;;1.70;1.60;;;;;;;;;;4993256;28;20234;-78
2023/01/03 00:12:25;;;;;;;1.27;1.17;;;;;;;;;;4981257;28;20299;-78
2023/01/03 00:14:58;;;;;;;1.40;1.40;;;;;;;;;;4986764;28;20685;-77
2023/01/03 00:17:25;;;;;;;1.27;1.27;;;;;;;;;;4982946;28;20242;-76
2023/01/03 00:19:52;;;;;;;2.40;1.77;;;;;;;;;;4986762;28;20283;-78
2023/01/03 00:22:20;;;;;;;1.77;1.67;;;;;;;;;;4988573;28;20299;-78
2023/01/03 00:24:48;;;;;;;2.00;1.80;;;;;;;;;;4985360;28;20210;-78
2023/01/03 00:27:15;;;;;;;1.20;1.10;;;;;;;;;;4979859;28;20268;-78
2023/01/03 00:29:43;;;;;;;0.93;0.93;;;;;;;;;;4981241;28;20228;-77
2023/01/03 00:32:10;;;;;;;1.10;1.10;;;;;;;;;;4987206;28;20250;-78
2023/01/03 00:34:37;;;;;;;2.67;2.40;;;;;;;;;;4991628;28;20290;-77
2023/01/03 00:37:04;;;;;;;47.13;19.43;;;;;;;;;;5001440;28;20212;-74
2023/01/03 00:39:32;;;;;;;17.47;6.87;;;;;;;;;;5008740;28;20216;-77
2023/01/03 00:41:59;;;;;;;18.27;7.33;;;;;;;;;;4980752;28;20287;-75
2023/01/03 00:44:26;;;;;;;13.63;6.77;;;;;;;;;;4982972;28;20217;-77
2023/01/03 00:46:54;;;;;;;3.83;2.80;;;;;;;;;;4985637;28;20224;-76
2023/01/03 00:49:21;;;;;;;3.37;2.40;;;;;;;;;;4986152;28;20224;-77
2023/01/03 00:51:48;;;;;;;12.37;7.27;;;;;;;;;;4990892;28;20200;-76
2023/01/03 00:54:16;;;;;;;3.43;3.13;;;;;;;;;;4995927;28;20240;-77
2023/01/03 00:56:45;;;;;;;3.10;2.83;;;;;;;;;;4979200;28;20701;-78
2023/01/03 00:59:13;;;;;;;2.87;2.43;;;;;;;;;;4986233;28;20323;-77
2023/01/03 01:01:42;;;;;;;1.50;1.50;;;;;;;;;;4976125;28;20271;-77
2023/01/03 01:04:16;;;;;;;1.10;1.00;;;;;;;;;;4987879;28;20200;-76
2023/01/03 01:06:48;;;;;;;21.57;14.23;;;;;;;;;;4975871;28;20244;-76
2023/01/03 01:09:18;;;;;;;2.83;2.37;;;;;;;;;;4981816;28;20244;-78
2023/01/03 01:11:45;;;;;;;1.37;1.37;;;;;;;;;;4981330;28;20852;-75
2023/01/03 01:14:19;;;;;;;3.17;1.33;;;;;;;;;;4976626;28;20303;-76
2023/01/03 01:16:48;;;;;;;2.80;2.53;;;;;;;;;;4980673;28;20255;-76
2023/01/03 01:19:16;;;;;;;2.73;2.53;;;;;;;;;;4975691;28;20201;-78
2023/01/03 01:21:43;;;;;;;15.73;7.67;;;;;;;;;;4972229;28;20215;-77
2023/01/03 01:24:11;;;;;;;3.60;2.60;;;;;;;;;;4987369;28;20211;-76
2023/01/03 01:26:43;;;;;;;4.93;2.60;;;;;;;;;;4959379;28;20275;-75
2023/01/03 01:29:11;;;;;;;2.20;2.00;;;;;;;;;;4981485;28;20233;-76
2023/01/03 01:31:39;;;;;;;143.07;45.00;;;;;;;;;;4975076;28;20288;-77
2023/01/03 01:34:06;;;;;;;21.77;8.63;;;;;;;;;;4982209;28;20577;-78
2023/01/03 01:36:40;;;;;;;70.23;29.63;;;;;;;;;;4978163;28;20697;-78
2023/01/03 01:39:09;;;;;;;5.80;2.97;;;;;;;;;;4981351;28;20217;-77
2023/01/03 01:44:41;;;;;;;1.93;1.20;;;;;;;;;;4979456;28;20200;-75
2023/01/03 01:47:14;;;;;;;1.30;1.30;;;;;;;;;;4975401;28;20229;-76
2023/01/03 01:49:42;;;;;;;1.67;1.40;;;;;;;;;;4980167;28;20291;-77
2023/01/03 01:52:10;;;;;;;1.00;1.00;;;;;;;;;;4983610;28;20200;-77
2023/01/03 01:54:39;;;;;;;0.90;0.90;;;;;;;;;;4980910;28;20749;-76
2023/01/03 01:57:07;;;;;;;0.93;0.93;;;;;;;;;;4988029;28;20220;-76
2023/01/03 01:59:34;;;;;;;1.03;1.00;;;;;;;;;;4985099;28;20283;-77
2023/01/03 02:02:01;;;;;;;1.00;1.00;;;;;;;;;;4977256;28;20303;-75
2023/01/03 02:04:32;;;;;;;1.00;1.00;;;;;;;;;;4982057;28;26897;-76
2023/01/03 02:06:59;;;;;;;1.23;0.90;;;;;;;;;;4978847;28;20251;-77
2023/01/03 02:09:26;;;;;;;1.43;1.20;;;;;;;;;;4983687;28;20277;-78
2023/01/03 02:15:01;;;;;;;1.20;1.20;;;;;;;;;;4974734;28;20201;-76
2023/01/03 02:17:28;;;;;;;2.10;1.20;;;;;;;;;;4975078;28;20266;-76
2023/01/03 02:20:02;;;;;;;1.10;1.00;;;;;;;;;;4977035;28;20223;-77
2023/01/03 02:22:38;;;;;;;0.90;0.90;;;;;;;;;;4968034;28;20673;-77
2023/01/03 02:25:32;;;;;;;1.00;1.00;;;;;;;;;;4975694;28;20223;-76
2023/01/03 02:28:19;;;;;;;7.83;3.73;;;;;;;;;;4965483;28;20250;-78
2023/01/03 02:30:51;;;;;;;2.37;1.47;;;;;;;;;;4971203;28;20224;-76
2023/01/03 02:33:28;;;;;;;2.40;2.20;;;;;;;;;;4966666;28;20295;-77
2023/01/03 02:36:01;;;;;;;4.17;2.77;;;;;;;;;;4974923;28;20207;-77
2023/01/03 02:38:49;;;;;;;2.30;2.10;;;;;;;;;;4976728;28;20255;-76
2023/01/03 02:41:25;;;;;;;1.77;1.50;;;;;;;;;;4983365;28;20205;-78
2023/01/03 02:44:12;;;;;;;1.43;1.33;;;;;;;;;;4976689;28;20282;-76
2023/01/03 02:46:42;;;;;;;1.10;1.10;;;;;;;;;;4967624;28;20848;-76
2023/01/03 02:49:19;;;;;;;1.20;1.03;;;;;;;;;;4980004;28;20244;-75
2023/01/03 02:51:50;;;;;;;1.40;1.00;;;;;;;;;;4978023;28;20200;-78
2023/01/03 02:54:20;;;;;;;0.93;0.80;;;;;;;;;;4984075;28;20216;-77
2023/01/03 02:56:57;;;;;;;1.00;1.00;;;;;;;;;;4976956;28;20359;-76
2023/01/03 02:59:34;;;;;;;3.13;1.60;;;;;;;;;;4981024;28;20254;-78
2023/01/03 03:02:02;;;;;;;6.30;2.80;;;;;;;;;;4974865;28;20271;-75
2023/01/03 03:04:30;;;;;;;26.00;9.60;;;;;;;;;;4973168;28;20210;-77
2023/01/03 03:07:07;;;;;;;9.53;4.40;;;;;;;;;;4981634;28;20312;-76
2023/01/03 03:13:11;;;;;;;3.57;2.00;;;;;;;;;;4989311;28;20611;-77
2023/01/03 03:15:14;;;;;;;3.40;1.30;;;;;;;;;;4973622;28;20204;-76
2023/01/03 03:17:42;;;;;;;1.47;1.10;;;;;;;;;;4981428;28;20228;-77
2023/01/03 03:25:54;;;;;;;1.73;1.30;;;;;;;;;;4971558;28;20224;-77
2023/01/03 03:28:35;;;;;;;1.40;1.30;;;;;;;;;;4971917;28;20237;-76
2023/01/03 03:31:07;;;;;;;1.40;1.30;;;;;;;;;;4972700;28;20740;-77
2023/01/03 03:33:37;;;;;;;1.50;1.37;;;;;;;;;;4976195;28;20208;-76
2023/01/03 03:36:04;;;;;;;0.90;0.90;;;;;;;;;;4988303;28;20316;-76
2023/01/03 03:38:34;;;;;;;1.03;1.03;;;;;;;;;;4974940;28;20311;-75
2023/01/03 03:44:59;;;;;;;1.10;1.10;;;;;;;;;;4975340;28;20204;-75
2023/01/03 03:46:57;;;;;;;1.10;1.00;;;;;;;;;;4975516;28;20600;-78
2023/01/03 03:49:36;;;;;;;1.00;1.00;;;;;;;;;;4977727;28;20240;-78
2023/01/03 03:52:05;;;;;;;2.17;1.20;;;;;;;;;;4976407;28;20210;-77
2023/01/03 03:54:35;;;;;;;1.30;1.20;;;;;;;;;;4980197;28;20319;-75
2023/01/03 03:57:06;;;;;;;1.23;1.20;;;;;;;;;;4975364;28;20236;-77
2023/01/03 03:59:34;;;;;;;1.00;1.00;;;;;;;;;;4969721;28;20212;-77
2023/01/03 04:02:04;;;;;;;2.50;1.30;;;;;;;;;;4970492;28;20684;-77
2023/01/03 04:04:39;;;;;;;1.07;1.07;;;;;;;;;;4972723;28;20503;-74
2023/01/03 04:07:07;;;;;;;1.20;1.20;;;;;;;;;;4982718;28;20310;-77
2023/01/03 04:09:34;;;;;;;1.70;1.30;;;;;;;;;;4975322;28;20231;-78
2023/01/03 04:12:01;;;;;;;1.07;1.07;;;;;;;;;;4983290;28;20208;-78
2023/01/03 04:14:28;;;;;;;1.17;1.10;;;;;;;;;;4969063;28;20204;-78
2023/01/03 04:16:56;;;;;;;3.37;3.07;;;;;;;;;;4979794;28;20709;-77
2023/01/03 04:19:23;;;;;;;1.73;1.73;;;;;;;;;;4974449;28;20350;-77
2023/01/03 04:21:50;;;;;;;1.40;1.40;;;;;;;;;;4974362;28;20208;-74
2023/01/03 04:24:19;;;;;;;1.10;1.10;;;;;;;;;;4974039;28;20220;-77
2023/01/03 04:26:46;;;;;;;1.00;1.00;;;;;;;;;;4973881;28;20316;-77
2023/01/03 04:29:13;;;;;;;2.00;1.20;;;;;;;;;;4962320;28;20230;-75
2023/01/03 04:31:40;;;;;;;1.40;1.27;;;;;;;;;;4971306;28;20211;-76
2023/01/03 04:34:07;;;;;;;1.27;1.17;;;;;;;;;;4977931;28;20705;-76
2023/01/03 04:36:35;;;;;;;1.13;1.13;;;;;;;;;;4964246;28;20220;-77
2023/01/03 04:39:02;;;;;;;1.30;1.27;;;;;;;;;;4970180;28;20254;-78
2023/01/03 04:41:29;;;;;;;1.20;1.10;;;;;;;;;;4978174;28;20500;-77
2023/01/03 04:44:03;;;;;;;1.30;1.30;;;;;;;;;;4970389;28;20654;-76
2023/01/03 04:46:40;;;;;;;1.20;1.20;;;;;;;;;;4983687;28;20212;-77
2023/01/03 04:49:09;;;;;;;1.30;1.30;;;;;;;;;;4976612;28;20221;-76
2023/01/03 04:51:37;;;;;;;1.10;1.10;;;;;;;;;;4982101;28;20228;-76
2023/01/03 04:54:05;;;;;;;1.37;1.30;;;;;;;;;;4985700;28;20208;-76
2023/01/03 04:56:33;;;;;;;1.43;1.40;;;;;;;;;;4979289;28;20287;-76
2023/01/03 04:59:01;;;;;;;7.13;3.90;;;;;;;;;;4973126;28;20299;-77
2023/01/03 05:01:28;;;;;;;9.70;5.97;;;;;;;;;;4981713;28;20219;-76
2023/01/03 05:03:58;;;;;;;13.37;7.67;;;;;;;;;;4982154;28;20286;-75
2023/01/03 05:06:26;;;;;;;1.60;1.50;;;;;;;;;;4982575;28;20216;-78
2023/01/03 05:08:54;;;;;;;1.33;1.27;;;;;;;;;;4971473;28;20303;-75
2023/01/03 05:11:21;;;;;;;1.20;1.20;;;;;;;;;;4967952;28;21818;-75
2023/01/03 05:13:48;;;;;;;1.20;1.20;;;;;;;;;;4969696;28;20201;-77
2023/01/03 05:16:15;;;;;;;1.40;1.30;;;;;;;;;;4978925;28;20200;-77
2023/01/03 05:18:43;;;;;;;1.50;1.40;;;;;;;;;;4980957;28;20586;-75
2023/01/03 05:26:52;;;;;;;1.50;1.40;;;;;;;;;;4969644;28;20241;-76
2023/01/03 05:29:21;;;;;;;1.33;1.33;;;;;;;;;;4969979;28;20232;-75
2023/01/03 05:31:48;;;;;;;1.80;1.70;;;;;;;;;;4976668;28;20211;-75
2023/01/03 05:34:16;;;;;;;2.40;2.20;;;;;;;;;;4988942;28;20201;-75
2023/01/03 05:36:43;;;;;;;3.70;2.57;;;;;;;;;;4979175;28;20226;-78
2023/01/03 05:39:10;;;;;;;2.23;2.03;;;;;;;;;;4987013;28;20297;-77
2023/01/03 05:44:24;;;;;;;6.17;3.20;;;;;;;;;;4977447;28;20300;-76
2023/01/03 05:46:51;;;;;;;119.03;49.80;;;;;;;;;;4972856;28;21444;-77
2023/01/03 05:49:18;;;;;;;137.80;58.57;;;;;;;;;;4977782;28;20319;-76
2023/01/03 05:51:46;;;;;;;101.50;45.40;;;;;;;;;;4979894;28;20263;-79
2023/01/03 05:54:16;;;;;;;73.53;34.43;;;;;;;;;;4980699;28;20240;-77
2023/01/03 05:56:44;;;;;;;32.00;15.37;;;;;;;;;;4976308;28;20224;-76
2023/01/03 05:59:11;;;;;;;10.07;6.10;;;;;;;;;;4976737;28;20271;-76
2023/01/03 06:01:38;;;;;;;8.63;6.00;;;;;;;;;;4981466;28;20199;-79
2023/01/03 06:04:06;;;;;;;8.13;5.60;;;;;;;;;;4979670;28;20212;-76
2023/01/03 06:06:33;;;;;;;7.83;5.40;;;;;;;;;;4984672;28;20240;-77
2023/01/03 06:09:01;;;;;;;5.87;4.17;;;;;;;;;;4972334;28;20264;-77
2023/01/03 06:11:28;;;;;;;5.50;4.10;;;;;;;;;;4971078;28;20215;-75
2023/01/03 06:13:55;;;;;;;6.23;4.17;;;;;;;;;;4980818;28;23435;-75
2023/01/03 06:19:09;;;;;;;2.20;2.10;;;;;;;;;;4984003;28;20218;-76
2023/01/03 06:21:36;;;;;;;2.77;2.50;;;;;;;;;;4973751;28;20216;-77
2023/01/03 06:24:04;;;;;;;2.00;1.90;;;;;;;;;;4977608;28;20255;-75
2023/01/03 06:26:31;;;;;;;2.33;1.40;;;;;;;;;;4978649;28;20300;-76
2023/01/03 06:28:59;;;;;;;1.30;1.30;;;;;;;;;;4976725;28;20204;-76
2023/01/03 06:31:26;;;;;;;1.60;1.50;;;;;;;;;;4972347;28;20234;-76
2023/01/03 06:33:54;;;;;;;1.70;1.60;;;;;;;;;;4973958;28;20204;-77
2023/01/03 06:36:22;;;;;;;1.57;1.47;;;;;;;;;;4972520;28;20693;-77
2023/01/03 06:38:49;;;;;;;2.20;2.00;;;;;;;;;;4976972;28;20464;-76
2023/01/03 06:41:17;;;;;;;2.00;1.90;;;;;;;;;;4981180;28;20212;-76
2023/01/03 06:43:45;;;;;;;1.83;1.73;;;;;;;;;;4970932;28;20259;-77
2023/01/03 06:54:36;;;;;;;2.50;2.20;;;;;;;;;;4964307;28;20204;-77
2023/01/03 06:57:04;;;;;;;1.80;1.70;;;;;;;;;;4968182;28;20370;-78
2023/01/03 06:59:31;;;;;;;2.00;1.80;;;;;;;;;;4972939;28;20228;-77
2023/01/03 07:01:58;;;;;;;2.00;1.90;;;;;;;;;;4977637;28;21047;-77
2023/01/03 07:04:26;;;;;;;1.90;1.80;;;;;;;;;;4965110;28;20219;-78
2023/01/03 07:06:53;;;;;;;2.77;1.87;;;;;;;;;;4976395;28;20228;-75
2023/01/03 07:09:21;;;;;;;1.87;1.77;;;;;;;;;;4983594;28;20208;-76
2023/01/03 07:11:48;;;;;;;1.70;1.60;;;;;;;;;;4969516;28;20263;-74
2023/01/03 07:14:17;;;;;;;2.23;2.03;;;;;;;;;;4979405;28;20212;-74
2023/01/03 07:16:45;;;;;;;1.90;1.80;;;;;;;;;;4976020;28;20224;-78
2023/01/03 07:19:14;;;;;;;2.10;1.70;;;;;;;;;;4980007;28;20259;-76
2023/01/03 07:21:42;;;;;;;1.40;1.40;;;;;;;;;;4975460;28;20212;-77
2023/01/03 07:24:11;;;;;;;1.40;1.40;;;;;;;;;;4978931;28;20368;-77
2023/01/03 07:26:38;;;;;;;2.03;1.90;;;;;;;;;;4979603;28;20224;-77
2023/01/03 07:29:07;;;;;;;2.70;2.50;;;;;;;;;;4968492;28;20275;-76
2023/01/03 07:31:35;;;;;;;3.73;2.30;;;;;;;;;;4972721;28;20242;-78
2023/01/03 07:34:02;;;;;;;2.30;2.10;;;;;;;;;;4975181;28;21038;-77
2023/01/03 07:36:29;;;;;;;3.17;2.50;;;;;;;;;;4975294;28;20208;-74
2023/01/03 07:38:56;;;;;;;3.03;2.10;;;;;;;;;;4977637;28;20212;-76
2023/01/03 07:43:35;;;;;;;2.30;2.20;;;;;;;;;;4976726;28;20208;-77
2023/01/03 07:44:11;;;;;;;2.63;2.43;;;;;;;;;;4973612;28;20689;-79
2023/01/03 07:46:38;;;;;;;2.77;2.57;;;;;;;;;;4980470;28;20234;-78
2023/01/03 07:49:05;;;;;;;2.90;2.70;;;;;;;;;;4982829;28;20200;-79
2023/01/03 07:51:38;;;;;;;3.80;3.00;;;;;;;;;;4982699;28;20220;-79
2023/01/03 07:54:06;;;;;;;2.97;2.70;;;;;;;;;;4988439;28;20263;-79
2023/01/03 07:56:33;;;;;;;3.00;2.80;;;;;;;;;;4982990;28;20473;-77
2023/01/03 07:59:02;;;;;;;5.43;4.50;;;;;;;;;;4991650;28;20211;-79
2023/01/03 08:01:29;;;;;;;7.20;5.67;;;;;;;;;;4976583;28;20235;-78
2023/01/03 08:03:57;;;;;;;9.10;7.50;;;;;;;;;;4977313;28;20275;-78
2023/01/03 08:06:25;;;;;;;8.43;7.10;;;;;;;;;;4932103;28;1493558;-77
2023/01/03 08:14:25;;;;;;;7.13;5.30;;;;;;;;;;4983664;28;20290;-79
2023/01/03 08:16:54;;;;;;;6.13;5.17;;;;;;;;;;4980672;28;20235;-78
2023/01/03 08:19:21;;;;;;;5.97;5.47;;;;;;;;;;4975928;28;21885;-77
2023/01/03 08:21:49;;;;;;;13.17;9.47;;;;;;;;;;4985789;28;20227;-77
2023/01/03 08:24:16;;;;;;;14.13;9.43;;;;;;;;;;4983969;28;20204;-76
2023/01/03 08:26:44;;;;;;;10.57;8.37;;;;;;;;;;4985881;28;20230;-76
2023/01/03 08:29:11;;;;;;;4.37;3.93;;;;;;;;;;4984471;28;20753;-75
2023/01/03 08:31:41;;;;;;;3.70;2.70;;;;;;;;;;4974454;28;20226;-78
2023/01/03 08:34:10;;;;;;;1.80;1.70;;;;;;;;;;4979186;28;20213;-77
2023/01/03 08:36:49;;;;;;;2.43;2.23;;;;;;;;;;4980453;28;20252;-76
2023/01/03 08:39:18;;;;;;;2.40;1.80;;;;;;;;;;4981001;28;20210;-76
2023/01/03 08:41:47;;;;;;;3.77;3.23;;;;;;;;;;4978420;28;20340;-74
2023/01/03 08:44:15;;;;;;;4.20;3.80;;;;;;;;;;4986029;28;20219;-77
2023/01/03 08:46:45;;;;;;;10.00;7.73;;;;;;;;;;4983838;28;20324;-75
2023/01/03 08:49:13;;;;;;;10.10;8.73;;;;;;;;;;4989960;28;20255;-75
2023/01/03 08:51:40;;;;;;;8.83;6.97;;;;;;;;;;4986395;28;20752;-77
2023/01/03 08:54:07;;;;;;;5.00;4.30;;;;;;;;;;4985866;28;20215;-77
2023/01/03 08:56:34;;;;;;;4.40;4.00;;;;;;;;;;4992874;28;20232;-75
2023/01/03 08:59:02;;;;;;;5.87;4.17;;;;;;;;;;4989376;28;20204;-75
2023/01/03 09:01:29;;;;;;;5.30;4.80;;;;;;;;;;4970337;28;20679;-74
2023/01/03 09:03:56;;;;;;;4.13;3.73;;;;;;;;;;4983568;28;20614;-74
2023/01/03 09:06:23;;;;;;;2.90;2.70;;;;;;;;;;4988347;28;20274;-76
2023/01/03 09:08:51;;;;;;;3.70;2.70;;;;;;;;;;4984050;28;20592;-75
2023/01/03 09:11:18;;;;;;;3.13;2.83;;;;;;;;;;4988245;28;20256;-76
2023/01/03 09:13:45;;;;;;;3.20;3.00;;;;;;;;;;4986526;28;20322;-75
2023/01/03 09:16:15;;;;;;;2.90;2.63;;;;;;;;;;4986553;28;20215;-77
2023/01/03 09:18:42;;;;;;;4.00;3.57;;;;;;;;;;4986067;28;20236;-77
2023/01/03 09:21:12;;;;;;;3.53;2.90;;;;;;;;;;4987606;28;20204;-77
2023/01/03 09:23:43;;;;;;;2.00;1.80;;;;;;;;;;4984719;28;20205;-77
2023/01/03 09:26:10;;;;;;;2.63;1.80;;;;;;;;;;4984570;28;20239;-75
2023/01/03 09:28:37;;;;;;;1.80;1.70;;;;;;;;;;4986453;28;20709;-78
2023/01/03 09:31:05;;;;;;;2.43;1.87;;;;;;;;;;4978407;28;20231;-77
2023/01/03 09:33:32;;;;;;;2.23;2.10;;;;;;;;;;4974054;28;20211;-76
2023/01/03 09:36:00;;;;;;;2.50;1.60;;;;;;;;;;4985976;28;20203;-76
2023/01/03 09:38:27;;;;;;;1.30;1.30;;;;;;;;;;4979743;28;20227;-76
2023/01/03 09:40:59;;;;;;;1.90;1.80;;;;;;;;;;4984268;28;20562;-75
2023/01/03 09:43:32;;;;;;;2.73;1.70;;;;;;;;;;4985075;28;20749;-73
2023/01/03 09:46:00;;;;;;;1.67;1.57;;;;;;;;;;4981248;28;20231;-76
2023/01/03 09:48:36;;;;;;;1.77;1.67;;;;;;;;;;4979164;28;20256;-74
2023/01/03 10:03:42;;;;;;;3.17;2.70;;;;;;;;;;4987741;28;20255;-77
2023/01/03 10:05:14;;;;;;;1.87;1.77;;;;;;;;;;4982826;28;20228;-77
2023/01/03 10:07:53;;;;;;;4.80;2.53;;;;;;;;;;4995888;28;20266;-76
2023/01/03 10:10:41;;;;;;;1.80;1.70;;;;;;;;;;4985154;28;20204;-78
2023/01/03 10:13:31;;;;;;;2.00;1.90;;;;;;;;;;4977074;28;20214;-76
2023/01/03 10:16:24;;;;;;;1.60;1.50;;;;;;;;;;4963744;28;20751;-75
2023/01/03 10:19:11;;;;;;;1.60;1.50;;;;;;;;;;4983913;28;20192;-76
2023/01/03 10:21:50;;;;;;;1.70;1.27;;;;;;;;;;4969563;28;20258;-74
2023/01/03 10:24:20;;;;;;;1.03;1.03;;;;;;;;;;4984111;28;20203;-78
2023/01/03 10:26:49;;;;;;;1.27;1.23;;;;;;;;;;4983921;28;20224;-76
2023/01/03 10:29:17;;;;;;;1.90;1.70;;;;;;;;;;4986515;28;20214;-77
2023/01/03 10:31:46;;;;;;;1.90;1.80;;;;;;;;;;4980283;28;20227;-78
2023/01/03 10:34:13;;;;;;;3.40;3.10;;;;;;;;;;4971609;28;20219;-73
2023/01/03 10:36:40;;;;;;;2.27;2.07;;;;;;;;;;4983235;28;20230;-78
2023/01/03 10:39:09;;;;;;;1.87;1.60;;;;;;;;;;4979007;28;20292;-75
2023/01/03 10:41:44;;;;;;;3.07;1.73;;;;;;;;;;4989001;28;20204;-77
2023/01/03 10:44:22;;;;;;;2.23;2.13;;;;;;;;;;4984242;28;20219;-78
2023/01/03 10:46:52;;;;;;;1.97;1.37;;;;;;;;;;4980281;28;20258;-76
2023/01/03 10:49:24;;;;;;;1.70;1.30;;;;;;;;;;4983962;28;20216;-75
2023/01/03 10:51:57;;;;;;;1.57;1.30;;;;;;;;;;4977160;28;20226;-79
2023/01/03 10:54:40;;;;;;;1.80;1.70;;;;;;;;;;4971933;28;20207;-77
2023/01/03 10:57:07;;;;;;;1.70;1.60;;;;;;;;;;4978105;28;20220;-78
2023/01/03 10:59:36;;;;;;;2.03;1.93;;;;;;;;;;4978051;28;20299;-78
2023/01/03 11:02:15;;;;;;;1.77;1.67;;;;;;;;;;4963942;28;20231;-76
2023/01/03 11:04:43;;;;;;;1.57;1.47;;;;;;;;;;4970676;28;20211;-77
2023/01/03 11:07:11;;;;;;;1.90;1.80;;;;;;;;;;4979005;28;20231;-78
2023/01/03 11:09:43;;;;;;;1.13;1.13;;;;;;;;;;4979839;28;20214;-78
2023/01/03 11:12:23;;;;;;;1.40;1.20;;;;;;;;;;4968464;28;20410;-76
2023/01/03 11:14:51;;;;;;;1.33;1.23;;;;;;;;;;4968911;28;20212;-79
2023/01/03 11:17:20;;;;;;;1.30;1.20;;;;;;;;;;4977216;28;20382;-77
2023/01/03 11:19:48;;;;;;;1.53;1.30;;;;;;;;;;4976584;28;20196;-77
2023/01/03 11:22:25;;;;;;;1.10;1.10;;;;;;;;;;4982908;28;20230;-76
2023/01/03 11:25:05;;;;;;;2.77;1.50;;;;;;;;;;4966752;28;20208;-77
2023/01/03 11:27:40;;;;;;;2.40;2.20;;;;;;;;;;4979636;28;20231;-76
2023/01/03 11:30:07;;;;;;;1.37;1.37;;;;;;;;;;4963619;28;20310;-77
2023/01/03 11:32:50;;;;;;;1.50;1.30;;;;;;;;;;4974703;28;20275;-77
2023/01/03 11:35:17;;;;;;;1.30;1.30;;;;;;;;;;4965896;28;20200;-78
2023/01/03 11:38:09;;;;;;;1.97;1.40;;;;;;;;;;4974312;28;20309;-77
2023/01/03 11:40:55;;;;;;;1.30;1.30;;;;;;;;;;4967616;28;20693;-79
2023/01/03 11:43:55;;;;;;;1.30;1.30;;;;;;;;;;4981728;28;23792;-77
2023/01/03 11:46:48;;;;;;;1.47;1.40;;;;;;;;;;4939975;28;20250;-78
2023/01/03 11:49:25;;;;;;;1.60;1.50;;;;;;;;;;4979916;28;20543;-76
2023/01/03 11:51:52;;;;;;;2.20;1.43;;;;;;;;;;4980481;28;20825;-76
2023/01/03 11:54:22;;;;;;;1.40;1.40;;;;;;;;;;4989826;28;20279;-78
2023/01/03 11:56:50;;;;;;;1.73;1.40;;;;;;;;;;4983342;28;20717;-78
2023/01/03 11:59:43;;;;;;;2.97;1.40;;;;;;;;;;4983503;28;20196;-77
2023/01/03 12:02:29;;;;;;;1.40;1.20;;;;;;;;;;4977316;28;20208;-76
2023/01/03 12:04:59;;;;;;;2.27;1.63;;;;;;;;;;4980719;28;20246;-78
2023/01/03 12:07:48;;;;;;;1.83;1.57;;;;;;;;;;4983390;28;20328;-78
2023/01/03 12:10:24;;;;;;;1.67;1.43;;;;;;;;;;4982354;28;20236;-78
2023/01/03 12:12:51;;;;;;;1.57;1.30;;;;;;;;;;4972522;28;20291;-77
2023/01/03 12:15:22;;;;;;;1.50;1.40;;;;;;;;;;4977674;28;20259;-76
2023/01/03 12:18:01;;;;;;;1.47;1.30;;;;;;;;;;4981523;28;20821;-78
2023/01/03 12:20:35;;;;;;;1.50;1.50;;;;;;;;;;4970935;28;20572;-78
2023/01/03 12:23:21;;;;;;;1.50;1.40;;;;;;;;;;4979600;28;20307;-75
2023/01/03 12:25:51;;;;;;;1.40;1.30;;;;;;;;;;4978897;28;20226;-78
2023/01/03 12:28:21;;;;;;;1.60;1.50;;;;;;;;;;4978798;28;20238;-77
2023/01/03 12:31:11;;;;;;;1.80;1.30;;;;;;;;;;4994552;28;20271;-77
2023/01/03 12:33:41;;;;;;;1.40;1.30;;;;;;;;;;4970384;28;20627;-77
2023/01/03 12:36:21;;;;;;;2.17;1.80;;;;;;;;;;4992025;28;20246;-79
2023/01/03 12:39:07;;;;;;;1.50;1.40;;;;;;;;;;4984858;28;20294;-78
2023/01/03 12:41:41;;;;;;;1.27;1.27;;;;;;;;;;4984186;28;20216;-76
2023/01/03 12:44:36;;;;;;;1.23;1.20;;;;;;;;;;4986660;28;20234;-77
2023/01/03 12:47:04;;;;;;;1.70;1.10;;;;;;;;;;4978216;28;20224;-77
2023/01/03 12:49:31;;;;;;;1.10;1.10;;;;;;;;;;4989863;28;20243;-76
2023/01/03 12:51:58;;;;;;;1.20;1.10;;;;;;;;;;4983288;28;20223;-76
2023/01/03 12:54:33;;;;;;;1.07;1.00;;;;;;;;;;4984897;28;20291;-76
2023/01/03 12:57:09;;;;;;;1.23;0.90;;;;;;;;;;4972211;28;20215;-75
2023/01/03 12:59:55;;;;;;;0.90;0.90;;;;;;;;;;4974329;28;20218;-77
2023/01/03 13:02:41;;;;;;;1.00;1.00;;;;;;;;;;4977481;28;20230;-77
2023/01/03 13:05:32;;;;;;;1.47;1.07;;;;;;;;;;4983607;28;20439;-76
2023/01/03 13:07:59;;;;;;;0.90;0.90;;;;;;;;;;4966297;28;20707;-78
2023/01/03 13:10:29;;;;;;;1.00;1.00;;;;;;;;;;4985885;28;20220;-76
2023/01/03 13:12:56;;;;;;;1.07;1.07;;;;;;;;;;4979665;28;20549;-75
2023/01/03 13:15:27;;;;;;;1.67;1.57;;;;;;;;;;4982985;28;20585;-77
2023/01/03 13:18:20;;;;;;;1.00;1.00;;;;;;;;;;4982241;28;20307;-74
2023/01/03 13:20:51;;;;;;;0.90;0.90;;;;;;;;;;4980524;28;20207;-77
2023/01/03 13:23:33;;;;;;;0.97;0.97;;;;;;;;;;4983755;28;20239;-75
2023/01/03 13:26:06;;;;;;;1.00;1.00;;;;;;;;;;4979251;28;20211;-76
2023/01/03 13:28:34;;;;;;;0.97;0.97;;;;;;;;;;4986627;28;20322;-77
2023/01/03 13:31:14;;;;;;;1.00;0.97;;;;;;;;;;4978574;28;20207;-77
2023/01/03 13:33:52;;;;;;;0.90;0.90;;;;;;;;;;4984003;28;20299;-78
2023/01/03 13:36:20;;;;;;;0.93;0.93;;;;;;;;;;4984812;28;20204;-78
2023/01/03 13:38:48;;;;;;;1.00;1.00;;;;;;;;;;4982040;28;20216;-76
2023/01/03 13:41:34;;;;;;;2.13;1.00;;;;;;;;;;4979754;28;20347;-77
2023/01/03 13:44:20;;;;;;;1.37;1.20;;;;;;;;;;4976471;28;20239;-75
2023/01/03 13:46:47;;;;;;;1.80;1.20;;;;;;;;;;4968808;28;20220;-78
2023/01/03 13:49:26;;;;;;;1.90;1.00;;;;;;;;;;4979546;28;20268;-74
2023/01/03 13:51:58;;;;;;;1.57;1.20;;;;;;;;;;4983750;28;20234;-78
2023/01/03 13:54:45;;;;;;;1.10;1.00;;;;;;;;;;4981520;28;20251;-77
2023/01/03 13:57:31;;;;;;;1.13;1.13;;;;;;;;;;4966850;28;20225;-79
2023/01/03 13:59:59;;;;;;;1.63;1.00;;;;;;;;;;4976139;28;20296;-75
2023/01/03 14:02:45;;;;;;;1.20;1.10;;;;;;;;;;4983171;28;20223;-78
2023/01/03 14:05:17;;;;;;;3.57;1.20;;;;;;;;;;4980762;28;20220;-75
2023/01/03 14:07:44;;;;;;;1.10;1.10;;;;;;;;;;4983023;28;20326;-76
2023/01/03 14:10:26;;;;;;;1.00;1.00;;;;;;;;;;4982232;28;20769;-77
2023/01/03 14:12:54;;;;;;;1.07;0.90;;;;;;;;;;4986570;28;20255;-78
2023/01/03 14:15:26;;;;;;;0.93;0.93;;;;;;;;;;4981229;28;20211;-79
2023/01/03 14:17:55;;;;;;;1.13;0.97;;;;;;;;;;4980880;28;20228;-76
2023/01/03 14:20:26;;;;;;;1.00;0.90;;;;;;;;;;4969856;28;20209;-77
2023/01/03 14:22:55;;;;;;;9.00;1.00;;;;;;;;;;4973261;28;20748;-77
2023/01/03 14:25:36;;;;;;;1.40;1.30;;;;;;;;;;4984682;28;20243;-78
2023/01/03 14:28:20;;;;;;;1.10;1.10;;;;;;;;;;4980810;28;20936;-77
2023/01/03 14:31:07;;;;;;;1.20;1.20;;;;;;;;;;4985449;28;20344;-77
2023/01/03 14:33:36;;;;;;;1.77;1.20;;;;;;;;;;4991350;28;20577;-77
2023/01/03 14:36:15;;;;;;;1.40;1.30;;;;;;;;;;4971824;28;20220;-79
2023/01/03 14:38:51;;;;;;;1.37;1.20;;;;;;;;;;4981018;28;20199;-79
2023/01/03 14:41:25;;;;;;;1.03;0.90;;;;;;;;;;4975432;28;20206;-74
2023/01/03 14:44:28;;;;;;;1.10;0.90;;;;;;;;;;4982604;28;20227;-77
2023/01/03 14:46:56;;;;;;;1.80;1.00;;;;;;;;;;4916740;29;20226;-76
2023/01/03 14:49:30;;;;;;;2.80;0.93;;;;;;;;;;4971169;28;20591;-77
2023/01/03 14:52:02;;;;;;;1.77;1.00;;;;;;;;;;4978356;28;20247;-76
2023/01/03 14:54:30;;;;;;;2.70;1.23;;;;;;;;;;4976410;28;20211;-78
2023/01/03 14:56:59;;;;;;;2.53;1.20;;;;;;;;;;4993221;28;20228;-76
2023/01/03 14:59:26;;;;;;;1.33;1.30;;;;;;;;;;4979782;28;20243;-78
2023/01/03 15:01:53;;;;;;;1.40;1.30;;;;;;;;;;4982583;28;20307;-77
2023/01/03 15:04:23;;;;;;;2.00;1.90;;;;;;;;;;4989470;28;20212;-77
2023/01/03 15:06:55;;;;;;;4.23;2.83;;;;;;;;;;4971333;28;20346;-78
2023/01/03 15:09:35;;;;;;;5.03;4.50;;;;;;;;;;4981063;28;20315;-78
2023/01/03 15:12:04;;;;;;;3.90;3.53;;;;;;;;;;4982936;28;20243;-78
2023/01/03 15:14:33;;;;;;;3.70;3.40;;;;;;;;;;4979570;28;20215;-79
2023/01/03 15:17:03;;;;;;;2.93;2.73;;;;;;;;;;4980961;28;20686;-78
2023/01/03 15:19:31;;;;;;;4.73;2.33;;;;;;;;;;4973707;28;20458;-78
2023/01/03 15:22:07;;;;;;;4.33;2.87;;;;;;;;;;4990097;28;20899;-78
2023/01/03 15:24:39;;;;;;;4.07;3.67;;;;;;;;;;4982526;28;20254;-76
2023/01/03 15:27:44;;;;;;;6.13;4.73;;;;;;;;;;4986182;28;20227;-74
2023/01/03 15:30:12;;;;;;;4.87;3.60;;;;;;;;;;4892479;29;20207;-75
2023/01/03 15:32:53;;;;;;;3.40;3.10;;;;;;;;;;4969315;28;20959;-80
2023/01/03 15:35:31;;;;;;;8.90;5.20;;;;;;;;;;4986266;28;20283;-74
2023/01/03 15:37:59;;;;;;;15.13;9.00;;;;;;;;;;4976019;28;20307;-79
2023/01/03 15:40:28;;;;;;;10.40;6.53;;;;;;;;;;4980870;28;20303;-78
2023/01/03 15:45:42;;;;;;;7.20;3.90;;;;;;;;;;4979929;28;20220;-75
2023/01/03 15:48:12;;;;;;;6.00;2.90;;;;;;;;;;4975262;28;20719;-77
2023/01/03 15:50:46;;;;;;;4.53;3.97;;;;;;;;;;4967688;28;20915;-76
2023/01/03 15:53:19;;;;;;;9.27;7.73;;;;;;;;;;4976333;28;20288;-77
2023/01/03 15:55:47;;;;;;;14.43;10.00;;;;;;;;;;4985861;28;20303;-77
2023/01/03 15:58:14;;;;;;;17.67;12.17;;;;;;;;;;4967146;28;20232;-77
2023/01/03 16:00:41;;;;;;;32.47;20.57;;;;;;;;;;4976905;28;20200;-77
2023/01/03 16:03:14;;;;;;;47.33;25.53;;;;;;;;;;4971497;28;20204;-76
2023/01/03 16:05:41;;;;;;;32.83;18.90;;;;;;;;;;4985965;28;20227;-79